createdAt,value
2017-11-09T00:00:09.888Z,926.79
2017-11-09T00:00:22.260Z,926.82
2017-11-09T00:00:34.610Z,926.81
2017-11-09T00:00:46.954Z,926.8
2017-11-09T00:00:59.353Z,926.77
2017-11-09T00:01:11.699Z,926.81
2017-11-09T00:01:24.656Z,926.79
2017-11-09T00:01:37.052Z,926.86
2017-11-09T00:01:49.982Z,926.78
2017-11-09T00:02:01.774Z,926.76
2017-11-09T00:02:14.917Z,926.79
2017-11-09T00:02:27.340Z,926.77
2017-11-09T00:02:40.813Z,926.81
2017-11-09T00:02:53.791Z,926.78
2017-11-09T00:03:05.611Z,926.79
2017-11-09T00:03:18.513Z,926.83
2017-11-09T00:03:30.841Z,926.84
2017-11-09T00:03:43.814Z,926.83
2017-11-09T00:03:56.187Z,926.88
2017-11-09T00:04:09.711Z,926.88
2017-11-09T00:04:21.518Z,926.81
2017-11-09T00:04:35.035Z,926.89
2017-11-09T00:04:47.961Z,926.88
2017-11-09T00:05:00.825Z,926.85
2017-11-09T00:05:13.197Z,926.88
2017-11-09T00:05:26.721Z,926.82
2017-11-09T00:05:39.650Z,926.84
2017-11-09T00:05:52.241Z,926.83
2017-11-09T00:06:04.674Z,926.84
2017-11-09T00:06:17.572Z,926.82
2017-11-09T00:06:30.501Z,926.83
2017-11-09T00:06:43.911Z,926.85
2017-11-09T00:06:57.335Z,926.83
2017-11-09T00:07:10.817Z,926.85
2017-11-09T00:07:23.733Z,926.86
2017-11-09T00:07:36.619Z,926.81
2017-11-09T00:07:50.101Z,926.79
2017-11-09T00:08:03.551Z,926.82
2017-11-09T00:08:15.974Z,926.77
2017-11-09T00:08:28.847Z,926.81
2017-11-09T00:08:42.340Z,926.84
2017-11-09T00:08:55.197Z,926.83
2017-11-09T00:09:08.094Z,926.83
2017-11-09T00:09:21.011Z,926.83
2017-11-09T00:09:34.494Z,926.83
2017-11-09T00:09:47.410Z,926.84
2017-11-09T00:09:59.778Z,926.85
2017-11-09T00:10:12.728Z,926.91
2017-11-09T00:10:26.194Z,926.89
2017-11-09T00:10:39.698Z,926.86
2017-11-09T00:10:51.516Z,926.88
2017-11-09T00:11:03.879Z,926.83
2017-11-09T00:11:17.315Z,926.83
2017-11-09T00:11:30.298Z,926.81
2017-11-09T00:11:43.750Z,926.82
2017-11-09T00:11:57.271Z,926.82
2017-11-09T00:12:10.706Z,926.82
2017-11-09T00:12:24.811Z,926.82
2017-11-09T00:12:38.255Z,926.81
2017-11-09T00:12:50.647Z,926.81
2017-11-09T00:13:03.538Z,926.82
2017-11-09T00:13:15.893Z,926.77
2017-11-09T00:13:29.386Z,926.78
2017-11-09T00:13:42.850Z,926.78
2017-11-09T00:13:55.780Z,926.8
2017-11-09T00:14:08.208Z,926.79
2017-11-09T00:14:21.722Z,926.79
2017-11-09T00:14:35.138Z,926.76
2017-11-09T00:14:48.073Z,926.77
2017-11-09T00:14:59.910Z,926.77
2017-11-09T00:15:13.326Z,926.8
2017-11-09T00:15:25.679Z,926.78
2017-11-09T00:15:39.151Z,926.79
2017-11-09T00:15:51.507Z,926.77
2017-11-09T00:16:04.924Z,926.76
2017-11-09T00:16:17.338Z,926.73
2017-11-09T00:16:30.300Z,926.75
2017-11-09T00:16:43.213Z,926.74
2017-11-09T00:16:55.558Z,926.78
2017-11-09T00:17:09.041Z,926.78
2017-11-09T00:17:22.026Z,926.8
2017-11-09T00:17:35.471Z,926.8
2017-11-09T00:17:47.839Z,926.76
2017-11-09T00:18:01.223Z,926.81
2017-11-09T00:18:14.345Z,926.77
2017-11-09T00:18:27.475Z,926.77
2017-11-09T00:18:40.357Z,926.76
2017-11-09T00:18:53.802Z,926.77
2017-11-09T00:19:07.213Z,926.79
2017-11-09T00:19:20.668Z,926.77
2017-11-09T00:19:33.580Z,926.76
2017-11-09T00:19:45.955Z,926.75
2017-11-09T00:19:58.852Z,926.79
2017-11-09T00:20:12.305Z,926.78
2017-11-09T00:20:25.225Z,926.78
2017-11-09T00:20:37.587Z,926.75
2017-11-09T00:20:51.074Z,926.74
2017-11-09T00:21:03.962Z,926.75
2017-11-09T00:21:15.270Z,926.79
2017-11-09T00:21:28.241Z,926.81
2017-11-09T00:21:41.193Z,926.83
2017-11-09T00:21:53.558Z,926.78
2017-11-09T00:22:05.973Z,926.79
2017-11-09T00:22:19.544Z,926.78
2017-11-09T00:22:31.413Z,926.81
2017-11-09T00:22:44.857Z,926.76
2017-11-09T00:22:57.735Z,926.8
2017-11-09T00:23:11.210Z,926.81
2017-11-09T00:23:23.033Z,926.82
2017-11-09T00:23:35.912Z,926.84
2017-11-09T00:23:49.284Z,926.81
2017-11-09T00:24:02.791Z,926.83
2017-11-09T00:24:15.712Z,926.86
2017-11-09T00:24:28.689Z,926.85
2017-11-09T00:24:41.606Z,926.86
2017-11-09T00:24:53.993Z,926.83
2017-11-09T00:25:06.899Z,926.85
2017-11-09T00:25:20.287Z,926.87
2017-11-09T00:25:33.705Z,926.88
2017-11-09T00:25:46.678Z,926.9
2017-11-09T00:25:59.049Z,926.89
2017-11-09T00:26:11.968Z,926.86
2017-11-09T00:26:25.364Z,926.92
2017-11-09T00:26:38.286Z,926.91
2017-11-09T00:26:50.645Z,926.89
2017-11-09T00:27:04.110Z,926.86
2017-11-09T00:27:17.049Z,926.91
2017-11-09T00:27:30.184Z,926.94
2017-11-09T00:27:43.135Z,926.91
2017-11-09T00:27:56.564Z,926.94
2017-11-09T00:28:07.818Z,926.93
2017-11-09T00:28:21.269Z,926.89
2017-11-09T00:28:34.186Z,926.94
2017-11-09T00:28:46.590Z,926.94
2017-11-09T00:28:58.947Z,926.95
2017-11-09T00:29:11.823Z,926.98
2017-11-09T00:29:25.272Z,926.97
2017-11-09T00:29:38.180Z,926.95
2017-11-09T00:29:51.659Z,926.96
2017-11-09T00:30:04.636Z,926.99
2017-11-09T00:30:16.998Z,927
2017-11-09T00:30:30.522Z,926.97
2017-11-09T00:30:43.450Z,926.98
2017-11-09T00:30:56.951Z,926.98
2017-11-09T00:31:09.899Z,926.98
2017-11-09T00:31:23.330Z,926.99
2017-11-09T00:31:36.834Z,926.98
2017-11-09T00:31:50.248Z,926.98
2017-11-09T00:32:02.632Z,926.98
2017-11-09T00:32:16.086Z,926.97
2017-11-09T00:32:29.290Z,926.97
2017-11-09T00:32:42.219Z,926.97
2017-11-09T00:32:55.697Z,927.01
2017-11-09T00:33:08.697Z,926.97
2017-11-09T00:33:21.068Z,927
2017-11-09T00:33:34.538Z,926.97
2017-11-09T00:33:47.423Z,926.96
2017-11-09T00:34:00.898Z,926.97
2017-11-09T00:34:14.320Z,926.99
2017-11-09T00:34:26.710Z,926.96
2017-11-09T00:34:40.151Z,927.03
2017-11-09T00:34:53.683Z,927
2017-11-09T00:35:06.618Z,927
2017-11-09T00:35:20.029Z,926.99
2017-11-09T00:35:32.403Z,927
2017-11-09T00:35:45.894Z,926.98
2017-11-09T00:35:58.826Z,926.97
2017-11-09T00:36:11.801Z,927
2017-11-09T00:36:25.290Z,927.01
2017-11-09T00:36:38.260Z,926.99
2017-11-09T00:36:51.661Z,927.01
2017-11-09T00:37:05.143Z,927.04
2017-11-09T00:37:18.080Z,927.01
2017-11-09T00:37:30.415Z,927.01
2017-11-09T00:37:42.829Z,927.03
2017-11-09T00:37:55.736Z,927.06
2017-11-09T00:38:08.660Z,927.02
2017-11-09T00:38:20.487Z,927.03
2017-11-09T00:38:33.936Z,927.04
2017-11-09T00:38:46.318Z,927.02
2017-11-09T00:38:58.722Z,927.04
2017-11-09T00:39:12.167Z,927.04
2017-11-09T00:39:24.527Z,927.08
2017-11-09T00:39:36.293Z,927.07
2017-11-09T00:39:49.712Z,927.07
2017-11-09T00:40:03.171Z,927.05
2017-11-09T00:40:15.565Z,927.03
2017-11-09T00:40:28.495Z,927.07
2017-11-09T00:40:41.393Z,927.08
2017-11-09T00:40:54.911Z,927.05
2017-11-09T00:41:07.849Z,927.07
2017-11-09T00:41:20.201Z,927.09
2017-11-09T00:41:33.134Z,927.05
2017-11-09T00:41:44.947Z,927.06
2017-11-09T00:41:56.763Z,927.06
2017-11-09T00:42:09.118Z,927.04
2017-11-09T00:42:21.454Z,927.06
2017-11-09T00:42:34.522Z,927.02
2017-11-09T00:42:46.901Z,927.06
2017-11-09T00:42:59.279Z,927.06
2017-11-09T00:43:12.744Z,927.03
2017-11-09T00:43:26.242Z,927.03
2017-11-09T00:43:39.723Z,926.98
2017-11-09T00:43:52.624Z,927.03
2017-11-09T00:44:06.069Z,927
2017-11-09T00:44:19.552Z,927.02
2017-11-09T00:44:33.073Z,926.99
2017-11-09T00:44:46.522Z,927.01
2017-11-09T00:45:00.017Z,927.03
2017-11-09T00:45:12.964Z,927.02
2017-11-09T00:45:26.421Z,927
2017-11-09T00:45:38.455Z,927.04
2017-11-09T00:45:51.986Z,927.01
2017-11-09T00:46:04.350Z,927
2017-11-09T00:46:17.295Z,927.06
2017-11-09T00:46:30.754Z,927.02
2017-11-09T00:46:43.752Z,927.02
2017-11-09T00:46:55.587Z,927.03
2017-11-09T00:47:09.083Z,927
2017-11-09T00:47:22.527Z,927.01
2017-11-09T00:47:35.554Z,927.04
2017-11-09T00:47:47.920Z,926.99
2017-11-09T00:48:01.377Z,927.06
2017-11-09T00:48:14.277Z,927.05
2017-11-09T00:48:27.191Z,927.02
2017-11-09T00:48:40.074Z,927.05
2017-11-09T00:48:51.342Z,927.02
2017-11-09T00:49:04.299Z,927.05
2017-11-09T00:49:17.767Z,927.04
2017-11-09T00:49:30.657Z,927.03
2017-11-09T00:49:43.528Z,927.05
2017-11-09T00:49:55.901Z,927.06
2017-11-09T00:50:07.721Z,927.05
2017-11-09T00:50:20.637Z,927.05
2017-11-09T00:50:34.086Z,927.04
2017-11-09T00:50:46.970Z,927.03
2017-11-09T00:50:59.877Z,927.05
2017-11-09T00:51:12.240Z,927.05
2017-11-09T00:51:25.212Z,927.05
2017-11-09T00:51:38.697Z,927.02
2017-11-09T00:51:51.098Z,927
2017-11-09T00:52:03.997Z,927.03
2017-11-09T00:52:16.944Z,927.01
2017-11-09T00:52:29.312Z,927
2017-11-09T00:52:42.746Z,927.04
2017-11-09T00:52:56.230Z,926.99
2017-11-09T00:53:09.679Z,927.02
2017-11-09T00:53:22.028Z,927.03
2017-11-09T00:53:34.955Z,927.02
2017-11-09T00:53:47.393Z,927.02
2017-11-09T00:53:59.737Z,927
2017-11-09T00:54:12.662Z,927.05
2017-11-09T00:54:25.087Z,927.02
2017-11-09T00:54:37.966Z,927.04
2017-11-09T00:54:50.878Z,927.01
2017-11-09T00:55:04.385Z,927.03
2017-11-09T00:55:16.838Z,927.01
2017-11-09T00:55:29.700Z,927.03
2017-11-09T00:55:43.206Z,927.02
2017-11-09T00:55:56.728Z,927.08
2017-11-09T00:56:10.183Z,927.04
2017-11-09T00:56:23.120Z,927.09
2017-11-09T00:56:36.022Z,927.04
2017-11-09T00:56:48.942Z,927.08
2017-11-09T00:57:01.335Z,927.07
2017-11-09T00:57:14.791Z,927.08
2017-11-09T00:57:27.709Z,927.03
2017-11-09T00:57:39.781Z,927.07
2017-11-09T00:57:53.217Z,927.08
2017-11-09T00:58:05.605Z,927.09
2017-11-09T00:58:18.488Z,927.07
2017-11-09T00:58:30.823Z,927.09
2017-11-09T00:58:43.245Z,927.02
2017-11-09T00:58:55.627Z,927.09
2017-11-09T00:59:08.019Z,927.05
2017-11-09T00:59:20.969Z,927.1
2017-11-09T00:59:33.928Z,927.08
2017-11-09T00:59:46.836Z,927.08
2017-11-09T01:00:00.322Z,927.08
2017-11-09T01:00:12.698Z,927.1
2017-11-09T01:00:25.609Z,927.1
2017-11-09T01:00:38.584Z,927.11
2017-11-09T01:00:50.420Z,927.09
2017-11-09T01:01:03.340Z,927.09
2017-11-09T01:01:16.255Z,927.12
2017-11-09T01:01:28.613Z,927.12
2017-11-09T01:01:40.932Z,927.1
2017-11-09T01:01:53.862Z,927.11
2017-11-09T01:02:06.739Z,927.08
2017-11-09T01:02:19.128Z,927.12
2017-11-09T01:02:31.467Z,927.14
2017-11-09T01:02:44.557Z,927.13
2017-11-09T01:02:57.533Z,927.12
2017-11-09T01:03:11.032Z,927.09
2017-11-09T01:03:23.928Z,927.09
2017-11-09T01:03:37.090Z,927.1
2017-11-09T01:03:50.033Z,927.1
2017-11-09T01:04:03.676Z,927.12
2017-11-09T01:04:17.137Z,927.14
2017-11-09T01:04:29.504Z,927.16
2017-11-09T01:04:41.894Z,927.15
2017-11-09T01:04:55.138Z,927.12
2017-11-09T01:05:08.618Z,927.08
2017-11-09T01:05:21.564Z,927.14
2017-11-09T01:05:35.041Z,927.08
2017-11-09T01:05:47.441Z,927.09
2017-11-09T01:05:59.772Z,927.08
2017-11-09T01:06:12.695Z,927.09
2017-11-09T01:06:26.116Z,927.09
2017-11-09T01:06:39.077Z,927.07
2017-11-09T01:06:51.976Z,927.08
2017-11-09T01:07:05.433Z,927.09
2017-11-09T01:07:18.372Z,927.04
2017-11-09T01:07:31.264Z,927.07
2017-11-09T01:07:44.324Z,927.11
2017-11-09T01:07:57.239Z,927.05
2017-11-09T01:08:09.638Z,927.07
2017-11-09T01:08:22.577Z,927.07
2017-11-09T01:08:36.039Z,927.05
2017-11-09T01:08:48.942Z,927.05
2017-11-09T01:09:01.306Z,927.03
2017-11-09T01:09:14.178Z,927.04
2017-11-09T01:09:27.625Z,927.03
2017-11-09T01:09:40.515Z,927.02
2017-11-09T01:09:52.312Z,927.03
2017-11-09T01:10:05.731Z,927.06
2017-11-09T01:10:18.141Z,927.04
2017-11-09T01:10:31.611Z,927.06
2017-11-09T01:10:45.092Z,927.04
2017-11-09T01:10:58.574Z,927.08
2017-11-09T01:11:11.511Z,927.05
2017-11-09T01:11:24.466Z,927.01
2017-11-09T01:11:36.321Z,927.08
2017-11-09T01:11:49.808Z,927.03
2017-11-09T01:12:03.268Z,927.02
2017-11-09T01:12:16.689Z,926.99
2017-11-09T01:12:30.113Z,926.98
2017-11-09T01:12:43.149Z,927
2017-11-09T01:12:56.055Z,926.98
2017-11-09T01:13:08.994Z,926.97
2017-11-09T01:13:22.494Z,926.97
2017-11-09T01:13:35.935Z,927
2017-11-09T01:13:48.321Z,926.94
2017-11-09T01:14:01.790Z,926.97
2017-11-09T01:14:14.740Z,926.96
2017-11-09T01:14:28.170Z,926.92
2017-11-09T01:14:41.082Z,926.93
2017-11-09T01:14:54.005Z,926.96
2017-11-09T01:15:07.079Z,926.94
2017-11-09T01:15:20.515Z,926.93
2017-11-09T01:15:33.392Z,926.91
2017-11-09T01:15:46.889Z,926.91
2017-11-09T01:15:59.825Z,926.9
2017-11-09T01:16:12.737Z,926.89
2017-11-09T01:16:26.107Z,926.9
2017-11-09T01:16:38.451Z,926.89
2017-11-09T01:16:51.394Z,926.89
2017-11-09T01:17:03.774Z,926.89
2017-11-09T01:17:16.140Z,926.89
2017-11-09T01:17:29.066Z,926.85
2017-11-09T01:17:42.569Z,926.9
2017-11-09T01:17:54.933Z,926.89
2017-11-09T01:18:08.368Z,926.87
2017-11-09T01:18:21.258Z,926.88
2017-11-09T01:18:33.638Z,926.85
2017-11-09T01:18:47.088Z,926.87
2017-11-09T01:18:59.972Z,926.88
2017-11-09T01:19:13.499Z,926.87
2017-11-09T01:19:26.951Z,926.85
2017-11-09T01:19:39.392Z,926.88
2017-11-09T01:19:52.883Z,926.88
2017-11-09T01:20:06.289Z,926.89
2017-11-09T01:20:18.653Z,926.92
2017-11-09T01:20:31.598Z,926.88
2017-11-09T01:20:45.031Z,926.92
2017-11-09T01:20:57.914Z,926.95
2017-11-09T01:21:10.857Z,926.9
2017-11-09T01:21:23.230Z,926.92
2017-11-09T01:21:36.090Z,926.94
2017-11-09T01:21:49.052Z,926.92
2017-11-09T01:22:02.544Z,926.92
2017-11-09T01:22:15.473Z,926.95
2017-11-09T01:22:28.388Z,926.94
2017-11-09T01:22:41.829Z,926.93
2017-11-09T01:22:55.314Z,926.99
2017-11-09T01:23:07.644Z,926.97
2017-11-09T01:23:20.018Z,926.96
2017-11-09T01:23:32.974Z,926.96
2017-11-09T01:23:45.872Z,926.97
2017-11-09T01:23:59.350Z,926.97
2017-11-09T01:24:11.734Z,926.97
2017-11-09T01:24:24.160Z,926.97
2017-11-09T01:24:37.136Z,926.98
2017-11-09T01:24:50.059Z,927
2017-11-09T01:25:02.405Z,926.97
2017-11-09T01:25:15.337Z,926.95
2017-11-09T01:25:27.174Z,927.01
2017-11-09T01:25:40.070Z,926.98
2017-11-09T01:25:52.411Z,927
2017-11-09T01:26:05.935Z,927.04
2017-11-09T01:26:18.823Z,927.04
2017-11-09T01:26:31.171Z,926.97
2017-11-09T01:26:44.047Z,926.99
2017-11-09T01:26:56.462Z,927
2017-11-09T01:27:08.921Z,926.96
2017-11-09T01:27:21.802Z,927.01
2017-11-09T01:27:35.264Z,927.01
2017-11-09T01:27:48.947Z,926.99
2017-11-09T01:28:02.383Z,926.95
2017-11-09T01:28:15.314Z,926.99
2017-11-09T01:28:27.760Z,926.93
2017-11-09T01:28:40.217Z,926.98
2017-11-09T01:28:53.109Z,926.96
2017-11-09T01:29:06.541Z,926.95
2017-11-09T01:29:19.432Z,926.99
2017-11-09T01:29:32.941Z,926.94
2017-11-09T01:29:46.413Z,926.99
2017-11-09T01:29:59.935Z,926.97
2017-11-09T01:30:12.865Z,926.97
2017-11-09T01:30:25.303Z,926.97
2017-11-09T01:30:38.781Z,927
2017-11-09T01:30:51.215Z,926.96
2017-11-09T01:31:04.159Z,926.95
2017-11-09T01:31:16.006Z,926.91
2017-11-09T01:31:28.926Z,926.93
2017-11-09T01:31:41.863Z,926.95
2017-11-09T01:31:55.305Z,926.96
2017-11-09T01:32:08.796Z,926.95
2017-11-09T01:32:21.654Z,926.94
2017-11-09T01:32:34.600Z,927
2017-11-09T01:32:47.231Z,926.92
2017-11-09T01:33:00.190Z,926.95
2017-11-09T01:33:13.152Z,926.95
2017-11-09T01:33:26.079Z,926.93
2017-11-09T01:33:39.519Z,926.92
2017-11-09T01:33:52.391Z,926.97
2017-11-09T01:34:05.348Z,926.94
2017-11-09T01:34:18.287Z,926.95
2017-11-09T01:34:31.193Z,926.95
2017-11-09T01:34:44.674Z,926.99
2017-11-09T01:34:57.021Z,926.99
2017-11-09T01:35:08.321Z,926.97
2017-11-09T01:35:21.833Z,927.01
2017-11-09T01:35:35.366Z,926.97
2017-11-09T01:35:48.242Z,926.95
2017-11-09T01:36:01.131Z,926.95
2017-11-09T01:36:14.294Z,926.98
2017-11-09T01:36:27.766Z,926.96
2017-11-09T01:36:40.734Z,927
2017-11-09T01:36:53.640Z,926.98
2017-11-09T01:37:06.607Z,926.97
2017-11-09T01:37:19.496Z,926.99
2017-11-09T01:37:32.974Z,926.99
2017-11-09T01:37:45.834Z,926.99
2017-11-09T01:37:58.725Z,926.96
2017-11-09T01:38:11.660Z,927
2017-11-09T01:38:25.109Z,926.97
2017-11-09T01:38:38.561Z,926.97
2017-11-09T01:38:52.031Z,927.01
2017-11-09T01:39:05.494Z,927.01
2017-11-09T01:39:17.319Z,927.03
2017-11-09T01:39:30.775Z,927.03
2017-11-09T01:39:43.703Z,926.99
2017-11-09T01:39:57.155Z,927.01
2017-11-09T01:40:10.046Z,927.01
2017-11-09T01:40:22.487Z,926.97
2017-11-09T01:40:35.408Z,927.03
2017-11-09T01:40:47.778Z,927.02
2017-11-09T01:40:59.626Z,927.05
2017-11-09T01:41:13.113Z,927.03
2017-11-09T01:41:26.068Z,927.06
2017-11-09T01:41:39.531Z,927.03
2017-11-09T01:41:53.011Z,927.03
2017-11-09T01:42:05.933Z,927.04
2017-11-09T01:42:18.853Z,927.07
2017-11-09T01:42:31.230Z,927.07
2017-11-09T01:42:44.126Z,927.04
2017-11-09T01:42:56.640Z,927.01
2017-11-09T01:43:10.131Z,927.08
2017-11-09T01:43:23.138Z,927.09
2017-11-09T01:43:36.058Z,927.11
2017-11-09T01:43:48.987Z,927.1
2017-11-09T01:44:01.884Z,927.11
2017-11-09T01:44:15.397Z,927.11
2017-11-09T01:44:28.304Z,927.12
2017-11-09T01:44:41.787Z,927.12
2017-11-09T01:44:54.165Z,927.1
2017-11-09T01:45:07.050Z,927.1
2017-11-09T01:45:20.507Z,927.14
2017-11-09T01:45:33.460Z,927.08
2017-11-09T01:45:46.970Z,927.09
2017-11-09T01:45:58.850Z,927.09
2017-11-09T01:46:10.715Z,927.1
2017-11-09T01:46:24.189Z,927.09
2017-11-09T01:46:37.162Z,927.12
2017-11-09T01:46:49.555Z,927.1
2017-11-09T01:47:02.549Z,927.11
2017-11-09T01:47:15.464Z,927.12
2017-11-09T01:47:27.810Z,927.1
2017-11-09T01:47:40.750Z,927.11
2017-11-09T01:47:53.743Z,927.12
2017-11-09T01:48:06.648Z,927.07
2017-11-09T01:48:19.015Z,927.07
2017-11-09T01:48:31.360Z,927.12
2017-11-09T01:48:43.173Z,927.08
2017-11-09T01:48:56.103Z,927.07
2017-11-09T01:49:09.568Z,927.09
2017-11-09T01:49:23.064Z,927.11
2017-11-09T01:49:35.999Z,927.08
2017-11-09T01:49:48.926Z,927.12
2017-11-09T01:50:01.885Z,927.09
2017-11-09T01:50:14.810Z,927.1
2017-11-09T01:50:28.241Z,927.07
2017-11-09T01:50:41.766Z,927.04
2017-11-09T01:50:54.717Z,927.02
2017-11-09T01:51:08.240Z,927
2017-11-09T01:51:21.776Z,927.04
2017-11-09T01:51:35.254Z,927.07
2017-11-09T01:51:48.201Z,927.02
2017-11-09T01:52:01.156Z,927.03
2017-11-09T01:52:14.108Z,927
2017-11-09T01:52:27.028Z,927.06
2017-11-09T01:52:39.953Z,927.01
2017-11-09T01:52:52.878Z,927.06
2017-11-09T01:53:05.838Z,927.03
2017-11-09T01:53:19.332Z,927.02
2017-11-09T01:53:31.723Z,926.99
2017-11-09T01:53:45.193Z,927.03
2017-11-09T01:53:58.642Z,927
2017-11-09T01:54:10.978Z,927.03
2017-11-09T01:54:23.323Z,926.98
2017-11-09T01:54:35.684Z,926.98
2017-11-09T01:54:48.590Z,926.97
2017-11-09T01:55:01.508Z,927.01
2017-11-09T01:55:14.988Z,926.95
2017-11-09T01:55:27.944Z,926.94
2017-11-09T01:55:40.879Z,926.94
2017-11-09T01:55:53.240Z,926.96
2017-11-09T01:56:06.161Z,926.92
2017-11-09T01:56:18.573Z,926.93
2017-11-09T01:56:32.073Z,926.94
2017-11-09T01:56:44.950Z,926.91
2017-11-09T01:56:57.865Z,926.89
2017-11-09T01:57:11.313Z,926.91
2017-11-09T01:57:23.675Z,926.92
2017-11-09T01:57:37.173Z,926.92
2017-11-09T01:57:50.121Z,926.92
2017-11-09T01:58:03.560Z,926.91
2017-11-09T01:58:15.376Z,926.91
2017-11-09T01:58:28.337Z,926.87
2017-11-09T01:58:41.771Z,926.88
2017-11-09T01:58:55.254Z,926.84
2017-11-09T01:59:07.679Z,926.85
2017-11-09T01:59:20.640Z,926.84
2017-11-09T01:59:33.571Z,926.79
2017-11-09T01:59:46.521Z,926.82
2017-11-09T01:59:59.483Z,926.76
2017-11-09T02:00:12.967Z,926.78
2017-11-09T02:00:26.442Z,926.77
2017-11-09T02:00:39.881Z,926.79
2017-11-09T02:00:53.290Z,926.76
2017-11-09T02:01:06.716Z,926.75
2017-11-09T02:01:20.170Z,926.76
2017-11-09T02:01:33.083Z,926.73
2017-11-09T02:01:46.602Z,926.74
2017-11-09T02:02:00.076Z,926.7
2017-11-09T02:02:11.876Z,926.72
2017-11-09T02:02:24.799Z,926.67
2017-11-09T02:02:37.172Z,926.67
2017-11-09T02:02:50.087Z,926.68
2017-11-09T02:03:03.884Z,926.66
2017-11-09T02:03:16.225Z,926.65
2017-11-09T02:03:29.747Z,926.7
2017-11-09T02:03:42.677Z,926.69
2017-11-09T02:03:55.075Z,926.67
2017-11-09T02:04:08.023Z,926.66
2017-11-09T02:04:20.960Z,926.63
2017-11-09T02:04:34.427Z,926.61
2017-11-09T02:04:47.369Z,926.64
2017-11-09T02:05:00.290Z,926.64
2017-11-09T02:05:13.192Z,926.66
2017-11-09T02:05:26.675Z,926.62
2017-11-09T02:05:39.608Z,926.65
2017-11-09T02:05:51.994Z,926.64
2017-11-09T02:06:05.485Z,926.65
2017-11-09T02:06:17.899Z,926.64
2017-11-09T02:06:31.384Z,926.65
2017-11-09T02:06:44.829Z,926.64
2017-11-09T02:06:56.645Z,926.68
2017-11-09T02:07:09.578Z,926.66
2017-11-09T02:07:21.966Z,926.66
2017-11-09T02:07:34.908Z,926.68
2017-11-09T02:07:47.315Z,926.68
2017-11-09T02:08:00.251Z,926.7
2017-11-09T02:08:13.149Z,926.7
2017-11-09T02:08:26.599Z,926.7
2017-11-09T02:08:39.511Z,926.7
2017-11-09T02:08:52.967Z,926.73
2017-11-09T02:09:06.410Z,926.72
2017-11-09T02:09:19.300Z,926.74
2017-11-09T02:09:32.803Z,926.75
2017-11-09T02:09:45.201Z,926.71
2017-11-09T02:09:57.579Z,926.76
2017-11-09T02:10:11.041Z,926.72
2017-11-09T02:10:23.977Z,926.74
2017-11-09T02:10:35.246Z,926.78
2017-11-09T02:10:47.627Z,926.75
2017-11-09T02:11:01.044Z,926.75
2017-11-09T02:11:13.410Z,926.75
2017-11-09T02:11:26.373Z,926.77
2017-11-09T02:11:39.518Z,926.72
2017-11-09T02:11:51.351Z,926.73
2017-11-09T02:12:04.240Z,926.73
2017-11-09T02:12:16.031Z,926.73
2017-11-09T02:12:28.983Z,926.74
2017-11-09T02:12:42.463Z,926.72
2017-11-09T02:12:55.899Z,926.75
2017-11-09T02:13:08.915Z,926.73
2017-11-09T02:13:21.275Z,926.73
2017-11-09T02:13:34.754Z,926.7
2017-11-09T02:13:47.697Z,926.75
2017-11-09T02:14:01.143Z,926.7
2017-11-09T02:14:12.951Z,926.74
2017-11-09T02:14:25.865Z,926.67
2017-11-09T02:14:38.821Z,926.71
2017-11-09T02:14:51.179Z,926.76
2017-11-09T02:15:02.984Z,926.73
2017-11-09T02:15:16.470Z,926.69
2017-11-09T02:15:28.834Z,926.72
2017-11-09T02:15:41.737Z,926.71
2017-11-09T02:15:54.640Z,926.71
2017-11-09T02:16:08.109Z,926.7
2017-11-09T02:16:20.982Z,926.69
2017-11-09T02:16:32.248Z,926.69
2017-11-09T02:16:45.191Z,926.68
2017-11-09T02:16:58.073Z,926.71
2017-11-09T02:17:11.015Z,926.69
2017-11-09T02:17:23.971Z,926.69
2017-11-09T02:17:36.885Z,926.7
2017-11-09T02:17:49.852Z,926.75
2017-11-09T02:18:02.784Z,926.72
2017-11-09T02:18:16.253Z,926.69
2017-11-09T02:18:29.215Z,926.75
2017-11-09T02:18:42.144Z,926.75
2017-11-09T02:18:55.064Z,926.76
2017-11-09T02:19:08.527Z,926.8
2017-11-09T02:19:21.995Z,926.76
2017-11-09T02:19:34.959Z,926.77
2017-11-09T02:19:47.864Z,926.77
2017-11-09T02:20:00.814Z,926.77
2017-11-09T02:20:13.675Z,926.81
2017-11-09T02:20:26.583Z,926.8
2017-11-09T02:20:40.033Z,926.79
2017-11-09T02:20:51.843Z,926.81
2017-11-09T02:21:04.785Z,926.8
2017-11-09T02:21:17.172Z,926.86
2017-11-09T02:21:30.099Z,926.82
2017-11-09T02:21:42.576Z,926.82
2017-11-09T02:21:56.073Z,926.83
2017-11-09T02:22:08.985Z,926.85
2017-11-09T02:22:22.463Z,926.84
2017-11-09T02:22:35.397Z,926.84
2017-11-09T02:22:47.225Z,926.84
2017-11-09T02:23:00.190Z,926.86
2017-11-09T02:23:12.646Z,926.84
2017-11-09T02:23:26.158Z,926.83
2017-11-09T02:23:39.674Z,926.79
2017-11-09T02:23:52.638Z,926.83
2017-11-09T02:24:05.579Z,926.79
2017-11-09T02:24:18.502Z,926.78
2017-11-09T02:24:31.406Z,926.81
2017-11-09T02:24:44.286Z,926.78
2017-11-09T02:24:57.234Z,926.79
2017-11-09T02:25:10.762Z,926.79
2017-11-09T02:25:24.252Z,926.78
2017-11-09T02:25:37.703Z,926.74
2017-11-09T02:25:51.185Z,926.77
2017-11-09T02:26:03.533Z,926.77
2017-11-09T02:26:15.922Z,926.76
2017-11-09T02:26:28.294Z,926.73
2017-11-09T02:26:41.746Z,926.74
2017-11-09T02:26:54.711Z,926.75
2017-11-09T02:27:07.080Z,926.75
2017-11-09T02:27:20.033Z,926.75
2017-11-09T02:27:32.964Z,926.74
2017-11-09T02:27:45.368Z,926.75
2017-11-09T02:27:57.718Z,926.72
2017-11-09T02:28:11.306Z,926.75
2017-11-09T02:28:24.858Z,926.73
2017-11-09T02:28:38.321Z,926.72
2017-11-09T02:28:51.823Z,926.7
2017-11-09T02:29:04.675Z,926.72
2017-11-09T02:29:17.039Z,926.73
2017-11-09T02:29:29.981Z,926.73
2017-11-09T02:29:42.873Z,926.71
2017-11-09T02:29:54.159Z,926.72
2017-11-09T02:30:06.806Z,926.72
2017-11-09T02:30:19.726Z,926.74
2017-11-09T02:30:31.552Z,926.7
2017-11-09T02:30:43.937Z,926.72
2017-11-09T02:30:57.407Z,926.73
2017-11-09T02:31:10.394Z,926.73
2017-11-09T02:31:23.857Z,926.71
2017-11-09T02:31:36.770Z,926.74
2017-11-09T02:31:49.681Z,926.72
2017-11-09T02:32:01.497Z,926.73
2017-11-09T02:32:14.457Z,926.74
2017-11-09T02:32:27.592Z,926.73
2017-11-09T02:32:39.401Z,926.76
2017-11-09T02:32:52.928Z,926.73
2017-11-09T02:33:06.388Z,926.77
2017-11-09T02:33:19.286Z,926.77
2017-11-09T02:33:32.250Z,926.76
2017-11-09T02:33:44.626Z,926.77
2017-11-09T02:33:57.567Z,926.74
2017-11-09T02:34:10.551Z,926.77
2017-11-09T02:34:24.002Z,926.75
2017-11-09T02:34:36.448Z,926.74
2017-11-09T02:34:49.987Z,926.79
2017-11-09T02:35:01.774Z,926.74
2017-11-09T02:35:14.729Z,926.76
2017-11-09T02:35:27.643Z,926.69
2017-11-09T02:35:41.117Z,926.72
2017-11-09T02:35:54.591Z,926.71
2017-11-09T02:36:06.987Z,926.71
2017-11-09T02:36:19.871Z,926.74
2017-11-09T02:36:33.335Z,926.69
2017-11-09T02:36:46.802Z,926.68
2017-11-09T02:37:00.258Z,926.68
2017-11-09T02:37:12.681Z,926.7
2017-11-09T02:37:25.587Z,926.66
2017-11-09T02:37:38.530Z,926.66
2017-11-09T02:37:51.468Z,926.64
2017-11-09T02:38:04.363Z,926.66
2017-11-09T02:38:16.751Z,926.66
2017-11-09T02:38:30.249Z,926.65
2017-11-09T02:38:43.751Z,926.63
2017-11-09T02:38:57.209Z,926.62
2017-11-09T02:39:10.129Z,926.63
2017-11-09T02:39:23.606Z,926.62
2017-11-09T02:39:36.515Z,926.61
2017-11-09T02:39:49.967Z,926.62
2017-11-09T02:40:03.459Z,926.63
2017-11-09T02:40:16.422Z,926.59
2017-11-09T02:40:28.807Z,926.61
2017-11-09T02:40:42.267Z,926.63
2017-11-09T02:40:55.206Z,926.62
2017-11-09T02:41:08.182Z,926.6
2017-11-09T02:41:21.342Z,926.64
2017-11-09T02:41:33.169Z,926.6
2017-11-09T02:41:46.626Z,926.62
2017-11-09T02:41:58.997Z,926.61
2017-11-09T02:42:11.946Z,926.59